Time;durP1;ratioP1;P1;durP2;ratioP2;P2;SDS_P1;SDS_P2;PMS_P1;PMS_P2;Temp;Humidity;BMP_temperature;BMP_pressure;BME280_temperature;BME280_humidity;BME280_pressure;Samples;Min_cycle;Max_cycle;Signal;HPM_P1;HPM_P2
2021/09/26 00:00:45;;;;;;;1.17;0.88;;;;;;;;;;5063069;28;20394;-68
2021/09/26 00:03:11;;;;;;;1.90;0.88;;;;;;;;;;5093237;28;20392;-68
2021/09/26 00:05:36;;;;;;;3.22;0.80;;;;;;;;;;5093317;28;20509;-68
2021/09/26 00:08:02;;;;;;;2.05;0.77;;;;;;;;;;5093264;28;20024;-68
2021/09/26 00:10:28;;;;;;;3.13;0.70;;;;;;;;;;5078704;28;20373;-68
2021/09/26 00:12:53;;;;;;;1.58;0.75;;;;;;;;;;5080545;28;20032;-68
2021/09/26 00:15:20;;;;;;;3.50;1.33;;;;;;;;;;5058535;28;20029;-68
2021/09/26 00:17:47;;;;;;;3.03;0.88;;;;;;;;;;5064566;28;20035;-68
2021/09/26 00:20:13;;;;;;;4.70;1.02;;;;;;;;;;5070796;28;20637;-68
2021/09/26 00:22:39;;;;;;;1.67;0.77;;;;;;;;;;5070631;28;20083;-68
2021/09/26 00:25:06;;;;;;;3.30;0.98;;;;;;;;;;5072061;28;20036;-68
2021/09/26 00:27:32;;;;;;;1.38;0.77;;;;;;;;;;5067028;28;20107;-68
2021/09/26 00:29:57;;;;;;;1.70;0.90;;;;;;;;;;5065969;28;20507;-68
2021/09/26 00:32:23;;;;;;;2.40;0.75;;;;;;;;;;5074862;28;20028;-68
2021/09/26 00:34:48;;;;;;;1.73;0.90;;;;;;;;;;5050999;28;20039;-68
2021/09/26 00:37:14;;;;;;;1.45;0.80;;;;;;;;;;5056760;28;20021;-68
2021/09/26 00:39:40;;;;;;;2.80;0.90;;;;;;;;;;5077930;28;20536;-68
2021/09/26 00:42:05;;;;;;;2.85;1.00;;;;;;;;;;5065939;28;20025;-68
2021/09/26 00:44:31;;;;;;;3.25;0.90;;;;;;;;;;5078483;28;20029;-68
2021/09/26 00:46:57;;;;;;;4.40;0.80;;;;;;;;;;5063183;28;20028;-68
2021/09/26 00:49:23;;;;;;;5.78;1.10;;;;;;;;;;5067556;28;20025;-68
2021/09/26 00:51:49;;;;;;;3.00;1.10;;;;;;;;;;5061102;28;20036;-68
2021/09/26 00:54:16;;;;;;;1.70;1.00;;;;;;;;;;5069299;28;20515;-68
2021/09/26 00:56:45;;;;;;;3.25;1.10;;;;;;;;;;5071571;28;20119;-68
2021/09/26 00:59:11;;;;;;;4.25;0.93;;;;;;;;;;5067246;28;20043;-68
2021/09/26 01:01:36;;;;;;;2.70;0.80;;;;;;;;;;5062551;28;20036;-68
2021/09/26 01:04:02;;;;;;;3.38;1.20;;;;;;;;;;5077373;28;20314;-68
2021/09/26 01:06:44;;;;;;;1.50;0.80;;;;;;;;;;5063178;28;20024;-68
2021/09/26 01:09:22;;;;;;;2.47;0.82;;;;;;;;;;5071828;28;20020;-68
2021/09/26 01:12:32;;;;;;;2.03;0.80;;;;;;;;;;5069407;28;20032;-68
2021/09/26 01:15:32;;;;;;;2.47;0.90;;;;;;;;;;5068574;28;20072;-68
2021/09/26 01:18:18;;;;;;;2.58;0.90;;;;;;;;;;5058390;28;20051;-68
2021/09/26 01:20:59;;;;;;;2.13;0.77;;;;;;;;;;5063500;28;20020;-68
2021/09/26 01:23:43;;;;;;;1.70;0.90;;;;;;;;;;5063440;28;20040;-68
2021/09/26 01:26:20;;;;;;;3.10;1.00;;;;;;;;;;5055366;28;20028;-68
2021/09/26 01:29:04;;;;;;;1.40;0.85;;;;;;;;;;5065609;28;20494;-68
2021/09/26 01:31:46;;;;;;;;;;;;;;;;;;5054815;28;20563;-68
2021/09/26 01:34:16;;;;;;;2.80;1.13;;;;;;;;;;5061122;28;19912;-68
2021/09/26 01:37:06;;;;;;;4.00;1.10;;;;;;;;;;5060565;28;20029;-68
2021/09/26 01:39:58;;;;;;;1.65;1.00;;;;;;;;;;5069314;28;20024;-68
2021/09/26 01:42:27;;;;;;;1.20;0.80;;;;;;;;;;5053819;28;20496;-68
2021/09/26 01:45:15;;;;;;;1.83;0.90;;;;;;;;;;5069434;28;20027;-68
2021/09/26 01:47:53;;;;;;;2.72;0.95;;;;;;;;;;5052883;28;20024;-68
2021/09/26 01:50:22;;;;;;;3.50;1.20;;;;;;;;;;5072616;28;20441;-68
2021/09/26 01:52:49;;;;;;;1.42;0.80;;;;;;;;;;5055568;28;20021;-68
2021/09/26 01:55:15;;;;;;;2.47;1.17;;;;;;;;;;5065472;28;20029;-68
2021/09/26 01:57:42;;;;;;;2.13;0.80;;;;;;;;;;5063507;28;20025;-68
2021/09/26 02:00:10;;;;;;;2.83;0.88;;;;;;;;;;5064326;28;20490;-68
2021/09/26 02:02:37;;;;;;;1.08;0.80;;;;;;;;;;5052852;28;20455;-68
2021/09/26 02:05:05;;;;;;;3.33;1.15;;;;;;;;;;5071623;28;20586;-68
2021/09/26 02:07:33;;;;;;;2.38;1.08;;;;;;;;;;5059283;28;20020;-68
2021/09/26 02:10:00;;;;;;;5.15;1.13;;;;;;;;;;5077556;28;20086;-68
2021/09/26 02:12:28;;;;;;;2.90;1.13;;;;;;;;;;5061238;28;20021;-68
2021/09/26 02:14:55;;;;;;;3.95;1.15;;;;;;;;;;5059590;28;20040;-68
2021/09/26 02:17:22;;;;;;;1.58;0.90;;;;;;;;;;5058180;28;20059;-68
2021/09/26 02:19:50;;;;;;;5.20;1.48;;;;;;;;;;5061065;28;20029;-68
2021/09/26 02:22:17;;;;;;;1.52;1.00;;;;;;;;;;5050637;28;20025;-68
2021/09/26 02:24:43;;;;;;;2.75;1.02;;;;;;;;;;5066001;28;20321;-68
2021/09/26 02:27:09;;;;;;;2.65;1.10;;;;;;;;;;5055372;28;20020;-68
2021/09/26 02:29:36;;;;;;;2.53;1.20;;;;;;;;;;5069975;28;20044;-68
2021/09/26 02:32:02;;;;;;;1.95;0.95;;;;;;;;;;5066825;28;20020;-68
2021/09/26 02:34:28;;;;;;;3.03;1.27;;;;;;;;;;5066388;28;20082;-68
2021/09/26 02:36:54;;;;;;;2.58;1.05;;;;;;;;;;5066764;28;20551;-68
2021/09/26 02:39:19;;;;;;;4.53;1.30;;;;;;;;;;5067049;28;20020;-68
2021/09/26 02:42:22;;;;;;;2.75;1.20;;;;;;;;;;5075332;28;20031;-68
2021/09/26 02:45:05;;;;;;;1.25;0.77;;;;;;;;;;5006400;28;20075;-68
2021/09/26 02:47:37;;;;;;;2.53;1.00;;;;;;;;;;5062720;28;20017;-68
2021/09/26 02:50:04;;;;;;;3.25;0.93;;;;;;;;;;5073845;28;20032;-68
2021/09/26 02:52:30;;;;;;;4.97;1.38;;;;;;;;;;5070307;28;20071;-68
2021/09/26 02:54:56;;;;;;;14.25;1.45;;;;;;;;;;5062148;28;20116;-68
2021/09/26 02:57:22;;;;;;;14.23;2.17;;;;;;;;;;5069981;28;20040;-68
2021/09/26 02:59:49;;;;;;;4.65;1.88;;;;;;;;;;5066533;28;20021;-68
2021/09/26 03:02:15;;;;;;;13.18;2.20;;;;;;;;;;5069458;28;20021;-68
2021/09/26 03:04:44;;;;;;;4.10;1.48;;;;;;;;;;5067694;28;20044;-68
2021/09/26 03:07:12;;;;;;;5.28;1.45;;;;;;;;;;5059772;28;20527;-68
2021/09/26 03:09:37;;;;;;;6.75;1.60;;;;;;;;;;5070152;28;20091;-68
2021/09/26 03:12:18;;;;;;;4.47;1.70;;;;;;;;;;5057284;28;20556;-68
2021/09/26 03:14:43;;;;;;;3.38;1.52;;;;;;;;;;5068527;28;20074;-68
2021/09/26 03:17:09;;;;;;;6.20;2.08;;;;;;;;;;5068089;28;20025;-69
2021/09/26 03:19:35;;;;;;;4.20;1.73;;;;;;;;;;5069606;28;20029;-68
2021/09/26 03:22:02;;;;;;;5.13;1.75;;;;;;;;;;5055649;28;20029;-68
2021/09/26 03:24:28;;;;;;;3.35;1.25;;;;;;;;;;5058298;28;20078;-68
2021/09/26 03:26:55;;;;;;;4.68;1.60;;;;;;;;;;5065385;28;20568;-68
2021/09/26 03:29:20;;;;;;;8.75;2.13;;;;;;;;;;5057188;28;20515;-68
2021/09/26 03:31:46;;;;;;;6.20;1.80;;;;;;;;;;5059754;28;20020;-68
2021/09/26 03:34:12;;;;;;;5.65;1.90;;;;;;;;;;5060925;28;20025;-68
2021/09/26 03:36:37;;;;;;;2.50;1.40;;;;;;;;;;5062813;28;20409;-68
2021/09/26 03:39:04;;;;;;;2.63;1.23;;;;;;;;;;5071449;28;20021;-68
2021/09/26 03:41:29;;;;;;;5.25;1.60;;;;;;;;;;5055343;28;20032;-68
2021/09/26 03:43:55;;;;;;;2.80;1.48;;;;;;;;;;5067949;28;20024;-68
2021/09/26 03:46:20;;;;;;;3.95;1.50;;;;;;;;;;5060072;28;20036;-68
2021/09/26 03:48:46;;;;;;;7.22;1.77;;;;;;;;;;5058127;28;20409;-69
2021/09/26 03:51:11;;;;;;;3.65;1.40;;;;;;;;;;5054496;28;20024;-68
2021/09/26 03:53:37;;;;;;;3.88;1.20;;;;;;;;;;5072165;28;20036;-69
2021/09/26 03:56:02;;;;;;;2.20;1.15;;;;;;;;;;5065971;28;20022;-68
2021/09/26 03:58:28;;;;;;;3.13;1.10;;;;;;;;;;5057468;28;20063;-68
2021/09/26 04:00:53;;;;;;;2.45;1.40;;;;;;;;;;5064017;28;20074;-69
2021/09/26 04:03:19;;;;;;;2.85;1.38;;;;;;;;;;5071174;28;20037;-69
2021/09/26 04:05:44;;;;;;;6.57;1.70;;;;;;;;;;5069345;28;20024;-68
2021/09/26 04:08:10;;;;;;;6.05;1.60;;;;;;;;;;5063409;28;20056;-68
2021/09/26 04:10:35;;;;;;;3.28;1.60;;;;;;;;;;5062206;28;20024;-68
2021/09/26 04:13:00;;;;;;;2.83;1.58;;;;;;;;;;5061890;28;20029;-68
2021/09/26 04:15:26;;;;;;;3.70;1.50;;;;;;;;;;5065007;28;20413;-68
2021/09/26 04:17:52;;;;;;;4.00;1.75;;;;;;;;;;5063808;28;20495;-68
2021/09/26 04:20:17;;;;;;;7.15;2.40;;;;;;;;;;5056895;28;20071;-68
2021/09/26 04:22:43;;;;;;;3.50;1.40;;;;;;;;;;5060986;28;20020;-68
2021/09/26 04:25:08;;;;;;;3.92;1.60;;;;;;;;;;5059027;28;20528;-68
2021/09/26 04:27:34;;;;;;;3.20;1.65;;;;;;;;;;5063407;28;20080;-68
2021/09/26 04:30:00;;;;;;;5.40;1.45;;;;;;;;;;5070506;28;20503;-69
2021/09/26 04:32:25;;;;;;;4.10;1.70;;;;;;;;;;5074661;28;20029;-68
2021/09/26 04:34:51;;;;;;;4.60;1.40;;;;;;;;;;5067141;28;20025;-68
2021/09/26 04:37:16;;;;;;;3.63;1.50;;;;;;;;;;5074960;28;20039;-69
2021/09/26 04:39:42;;;;;;;2.53;1.30;;;;;;;;;;5072071;28;20028;-68
2021/09/26 04:42:08;;;;;;;4.28;1.33;;;;;;;;;;5076771;28;20035;-69
2021/09/26 04:44:34;;;;;;;2.80;1.50;;;;;;;;;;5079748;28;20028;-69
2021/09/26 04:46:59;;;;;;;4.72;1.60;;;;;;;;;;5090235;28;20592;-68
2021/09/26 04:49:28;;;;;;;2.92;1.23;;;;;;;;;;5057503;28;20075;-68
2021/09/26 04:51:57;;;;;;;3.63;1.45;;;;;;;;;;5072312;28;20142;-68
2021/09/26 04:54:23;;;;;;;4.20;1.67;;;;;;;;;;5075367;28;20495;-69
2021/09/26 04:56:48;;;;;;;4.32;1.40;;;;;;;;;;5049185;28;20029;-68
2021/09/26 04:59:15;;;;;;;3.90;1.70;;;;;;;;;;5075756;28;20029;-69
2021/09/26 05:01:40;;;;;;;3.22;1.30;;;;;;;;;;5082475;28;20024;-69
2021/09/26 05:04:06;;;;;;;3.65;1.67;;;;;;;;;;5083320;28;20127;-69
2021/09/26 05:06:31;;;;;;;3.70;1.23;;;;;;;;;;5070370;28;20032;-69
2021/09/26 05:08:57;;;;;;;1.92;1.30;;;;;;;;;;5071089;28;20024;-69
2021/09/26 05:11:22;;;;;;;1.30;1.13;;;;;;;;;;5084712;28;20032;-69
2021/09/26 05:13:48;;;;;;;5.80;1.30;;;;;;;;;;5075031;28;20047;-69
2021/09/26 05:16:13;;;;;;;3.83;1.92;;;;;;;;;;5086970;28;20047;-68
2021/09/26 05:18:39;;;;;;;3.50;1.65;;;;;;;;;;5071000;28;20484;-69
2021/09/26 05:21:05;;;;;;;2.83;1.52;;;;;;;;;;5085406;28;20054;-69
2021/09/26 05:23:30;;;;;;;2.47;1.38;;;;;;;;;;5073535;28;20048;-69
2021/09/26 05:25:56;;;;;;;2.25;1.20;;;;;;;;;;5073936;28;20577;-69
2021/09/26 05:28:21;;;;;;;2.50;1.58;;;;;;;;;;5051401;28;20033;-69
2021/09/26 05:30:47;;;;;;;3.70;2.05;;;;;;;;;;5072730;28;20024;-68
2021/09/26 05:33:13;;;;;;;4.50;2.30;;;;;;;;;;5063872;28;20077;-69
2021/09/26 05:35:39;;;;;;;2.88;1.38;;;;;;;;;;5077069;28;20388;-69
2021/09/26 05:38:05;;;;;;;2.75;1.35;;;;;;;;;;5069391;28;20039;-69
2021/09/26 05:40:31;;;;;;;6.20;1.70;;;;;;;;;;5079307;28;20382;-69
2021/09/26 05:42:56;;;;;;;4.10;1.80;;;;;;;;;;5084132;28;20036;-69
2021/09/26 05:45:22;;;;;;;3.20;1.70;;;;;;;;;;5051241;28;20021;-69
2021/09/26 05:47:48;;;;;;;7.60;3.85;;;;;;;;;;5068848;28;20032;-69
2021/09/26 05:50:13;;;;;;;7.35;3.47;;;;;;;;;;5075482;28;20021;-69
2021/09/26 05:52:38;;;;;;;6.25;3.53;;;;;;;;;;5074764;28;20407;-69
2021/09/26 05:55:05;;;;;;;4.13;2.10;;;;;;;;;;5068895;28;20032;-69
2021/09/26 05:57:30;;;;;;;9.43;2.72;;;;;;;;;;5074534;28;20029;-69
2021/09/26 05:59:56;;;;;;;6.30;3.53;;;;;;;;;;5066307;28;20040;-69
2021/09/26 06:02:24;;;;;;;5.50;2.70;;;;;;;;;;5069071;28;20032;-69
2021/09/26 06:04:50;;;;;;;5.85;2.72;;;;;;;;;;5069755;28;20045;-69
2021/09/26 06:07:16;;;;;;;5.40;2.60;;;;;;;;;;5064577;28;20020;-69
2021/09/26 06:09:43;;;;;;;5.68;1.73;;;;;;;;;;5059175;28;20028;-69
2021/09/26 06:12:13;;;;;;;3.60;1.60;;;;;;;;;;5072217;28;20028;-69
2021/09/26 06:14:39;;;;;;;2.88;1.58;;;;;;;;;;5049267;28;20029;-69
2021/09/26 06:17:05;;;;;;;5.85;1.90;;;;;;;;;;5062376;28;20071;-69
2021/09/26 06:19:30;;;;;;;3.40;2.20;;;;;;;;;;5058602;28;20362;-69
2021/09/26 06:21:56;;;;;;;5.35;2.08;;;;;;;;;;5074246;28;20036;-69
2021/09/26 06:24:21;;;;;;;6.95;2.60;;;;;;;;;;5058478;28;20033;-69
2021/09/26 06:26:47;;;;;;;6.80;2.40;;;;;;;;;;5062508;28;20072;-69
2021/09/26 06:29:13;;;;;;;2.92;1.90;;;;;;;;;;5065439;28;20107;-69
2021/09/26 06:31:39;;;;;;;5.13;2.40;;;;;;;;;;5066101;28;20120;-69
2021/09/26 06:34:05;;;;;;;4.35;2.63;;;;;;;;;;5068720;28;20039;-69
2021/09/26 06:36:31;;;;;;;5.82;2.47;;;;;;;;;;5068932;28;20460;-69
2021/09/26 06:38:56;;;;;;;7.95;3.08;;;;;;;;;;5072113;28;20060;-69
2021/09/26 06:41:22;;;;;;;7.13;2.90;;;;;;;;;;5053523;28;20028;-69
2021/09/26 06:43:48;;;;;;;9.52;3.17;;;;;;;;;;5071893;28;20217;-69
2021/09/26 06:46:13;;;;;;;8.50;3.22;;;;;;;;;;5083173;28;20297;-69
2021/09/26 06:48:39;;;;;;;8.02;2.95;;;;;;;;;;5069104;28;20392;-69
2021/09/26 06:51:04;;;;;;;5.75;2.70;;;;;;;;;;5069423;28;20028;-69
2021/09/26 06:53:30;;;;;;;5.28;2.70;;;;;;;;;;5072389;28;20030;-68
2021/09/26 06:55:56;;;;;;;5.20;2.55;;;;;;;;;;5073598;28;20106;-69
2021/09/26 06:58:21;;;;;;;5.65;2.65;;;;;;;;;;5068040;28;20074;-69
2021/09/26 07:00:47;;;;;;;7.38;2.72;;;;;;;;;;5064160;28;20024;-69
2021/09/26 07:03:16;;;;;;;7.65;3.20;;;;;;;;;;5060259;28;20041;-69
2021/09/26 07:05:42;;;;;;;10.65;3.65;;;;;;;;;;5062459;28;20013;-69
2021/09/26 07:08:08;;;;;;;7.05;3.83;;;;;;;;;;5063963;28;20029;-69
2021/09/26 07:10:33;;;;;;;7.55;3.75;;;;;;;;;;5074122;28;20471;-69
2021/09/26 07:12:59;;;;;;;10.40;4.00;;;;;;;;;;5074501;28;20024;-69
2021/09/26 07:15:25;;;;;;;7.30;3.13;;;;;;;;;;5078379;28;20472;-69
2021/09/26 07:17:50;;;;;;;11.15;3.30;;;;;;;;;;5064375;28;20029;-69
2021/09/26 07:20:15;;;;;;;6.30;2.35;;;;;;;;;;5079752;28;20028;-69
2021/09/26 07:22:41;;;;;;;4.72;1.85;;;;;;;;;;5067811;28;20052;-69
2021/09/26 07:25:08;;;;;;;3.65;1.95;;;;;;;;;;5074924;28;20024;-69
2021/09/26 07:27:34;;;;;;;6.57;1.70;;;;;;;;;;5078992;28;20096;-70
2021/09/26 07:29:59;;;;;;;3.70;1.30;;;;;;;;;;5076173;28;20504;-70
2021/09/26 07:32:25;;;;;;;3.53;1.30;;;;;;;;;;5073836;28;20491;-69
2021/09/26 07:34:51;;;;;;;1.40;0.90;;;;;;;;;;5081923;28;20472;-70
2021/09/26 07:37:17;;;;;;;4.22;1.10;;;;;;;;;;5084784;28;20123;-70
2021/09/26 07:39:43;;;;;;;2.40;0.90;;;;;;;;;;5070700;28;20582;-70
2021/09/26 07:42:09;;;;;;;4.10;1.00;;;;;;;;;;5073735;28;20111;-70
2021/09/26 07:44:35;;;;;;;2.63;1.00;;;;;;;;;;5075117;28;20405;-70
2021/09/26 07:47:00;;;;;;;4.03;1.00;;;;;;;;;;5072268;28;20399;-70
2021/09/26 07:49:26;;;;;;;2.72;0.90;;;;;;;;;;5069473;28;20031;-70
2021/09/26 07:51:51;;;;;;;3.88;0.80;;;;;;;;;;5070509;28;20459;-70
2021/09/26 07:54:16;;;;;;;1.98;0.77;;;;;;;;;;5068267;28;20771;-70
2021/09/26 07:56:45;;;;;;;3.67;0.88;;;;;;;;;;5067952;28;20017;-69
2021/09/26 07:59:11;;;;;;;2.15;0.80;;;;;;;;;;5066697;28;20032;-69
2021/09/26 08:01:37;;;;;;;5.00;1.23;;;;;;;;;;5068946;28;20032;-70
2021/09/26 08:04:02;;;;;;;1.30;0.70;;;;;;;;;;5067902;28;20119;-70
2021/09/26 08:06:29;;;;;;;3.70;0.90;;;;;;;;;;5085492;28;20032;-69
2021/09/26 08:08:55;;;;;;;3.83;1.25;;;;;;;;;;5068851;28;20033;-69
2021/09/26 08:11:21;;;;;;;2.67;0.90;;;;;;;;;;5066186;28;20565;-69
2021/09/26 08:13:47;;;;;;;2.20;0.80;;;;;;;;;;5069904;28;20060;-70
2021/09/26 08:16:13;;;;;;;2.20;0.90;;;;;;;;;;5071902;28;20102;-69
2021/09/26 08:18:38;;;;;;;2.83;0.70;;;;;;;;;;5072965;28;20090;-70
2021/09/26 08:21:04;;;;;;;3.38;0.80;;;;;;;;;;5065845;28;20021;-70
2021/09/26 08:23:29;;;;;;;2.00;1.00;;;;;;;;;;5063379;28;20027;-69
2021/09/26 08:25:55;;;;;;;2.22;0.60;;;;;;;;;;5058093;28;20039;-69
2021/09/26 08:28:20;;;;;;;1.67;0.68;;;;;;;;;;5071033;28;20082;-69
2021/09/26 08:30:46;;;;;;;1.95;0.60;;;;;;;;;;5066982;28;20029;-69
2021/09/26 08:33:12;;;;;;;0.85;0.68;;;;;;;;;;5074799;28;20105;-69
2021/09/26 08:35:37;;;;;;;1.80;0.70;;;;;;;;;;5070758;28;20028;-69
2021/09/26 08:38:03;;;;;;;2.13;0.73;;;;;;;;;;5051333;28;20111;-69
2021/09/26 08:40:30;;;;;;;1.73;0.60;;;;;;;;;;5069437;28;20039;-70
2021/09/26 08:42:55;;;;;;;1.95;0.60;;;;;;;;;;5076187;28;20032;-69
2021/09/26 08:45:21;;;;;;;5.25;0.77;;;;;;;;;;5062776;28;20491;-69
2021/09/26 08:47:47;;;;;;;4.28;0.80;;;;;;;;;;5072295;28;20025;-69
2021/09/26 08:50:16;;;;;;;2.65;0.75;;;;;;;;;;5069134;28;20042;-70
2021/09/26 08:52:42;;;;;;;1.63;0.43;;;;;;;;;;5081438;28;20123;-69
2021/09/26 08:55:10;;;;;;;2.80;0.52;;;;;;;;;;5063241;28;20029;-69
2021/09/26 08:57:36;;;;;;;1.55;0.60;;;;;;;;;;5080463;28;20052;-69
2021/09/26 09:00:04;;;;;;;2.00;0.55;;;;;;;;;;5073186;28;20078;-70
2021/09/26 09:02:30;;;;;;;1.95;0.70;;;;;;;;;;5059767;28;20037;-69
2021/09/26 09:04:55;;;;;;;2.45;0.82;;;;;;;;;;5065315;28;20070;-69
2021/09/26 09:07:21;;;;;;;3.55;0.60;;;;;;;;;;5070247;28;20128;-69
2021/09/26 09:09:51;;;;;;;3.10;0.60;;;;;;;;;;5064081;28;20052;-69
2021/09/26 09:12:17;;;;;;;2.15;0.50;;;;;;;;;;5067463;28;20040;-69
2021/09/26 09:14:52;;;;;;;3.10;0.60;;;;;;;;;;5067098;28;20043;-69
2021/09/26 09:17:35;;;;;;;2.00;0.60;;;;;;;;;;5067592;28;20058;-69
2021/09/26 09:20:12;;;;;;;1.13;0.50;;;;;;;;;;5070380;28;20024;-69
2021/09/26 09:22:38;;;;;;;2.38;0.50;;;;;;;;;;5072694;28;20368;-69
2021/09/26 09:25:04;;;;;;;2.10;0.50;;;;;;;;;;5067205;28;20031;-69
2021/09/26 09:27:30;;;;;;;1.95;0.55;;;;;;;;;;5073892;28;20066;-68
2021/09/26 09:29:55;;;;;;;1.33;0.52;;;;;;;;;;5068783;28;20060;-68
2021/09/26 09:32:23;;;;;;;3.70;0.90;;;;;;;;;;5075165;28;20032;-68
2021/09/26 09:34:49;;;;;;;2.45;0.50;;;;;;;;;;5071168;28;20098;-68
2021/09/26 09:37:36;;;;;;;2.55;0.50;;;;;;;;;;5069406;28;20025;-68
2021/09/26 09:40:19;;;;;;;1.92;0.50;;;;;;;;;;5064109;28;20036;-68
2021/09/26 09:42:47;;;;;;;2.15;0.68;;;;;;;;;;5080680;28;20024;-68
2021/09/26 09:45:18;;;;;;;4.22;0.80;;;;;;;;;;5069698;28;20023;-68
2021/09/26 09:48:14;;;;;;;2.10;0.70;;;;;;;;;;5077110;28;20020;-68
2021/09/26 09:50:56;;;;;;;2.00;0.60;;;;;;;;;;5068225;28;20016;-68
2021/09/26 09:53:27;;;;;;;2.95;0.60;;;;;;;;;;5066964;28;20070;-68
2021/09/26 09:56:23;;;;;;;2.90;0.50;;;;;;;;;;5052214;28;20115;-67
2021/09/26 09:58:58;;;;;;;2.05;0.50;;;;;;;;;;5066873;28;20059;-68
2021/09/26 10:01:27;;;;;;;3.22;0.45;;;;;;;;;;5077450;28;20044;-68
2021/09/26 10:03:54;;;;;;;4.53;0.50;;;;;;;;;;5079800;28;20040;-68
2021/09/26 10:06:19;;;;;;;1.08;0.50;;;;;;;;;;5071923;28;20055;-68
2021/09/26 10:08:45;;;;;;;3.67;0.70;;;;;;;;;;5072974;28;20025;-67
2021/09/26 10:11:11;;;;;;;2.08;0.50;;;;;;;;;;5069947;28;20048;-68
2021/09/26 10:13:36;;;;;;;2.97;0.70;;;;;;;;;;5079404;28;20028;-68
2021/09/26 10:16:08;;;;;;;2.45;0.60;;;;;;;;;;5076279;28;20728;-68
2021/09/26 10:18:36;;;;;;;4.53;1.02;;;;;;;;;;5075852;28;20031;-68
2021/09/26 10:21:04;;;;;;;2.35;0.60;;;;;;;;;;5065963;28;20476;-68
2021/09/26 10:23:30;;;;;;;2.15;0.60;;;;;;;;;;5082293;28;20033;-68
2021/09/26 10:25:57;;;;;;;0.98;0.40;;;;;;;;;;5064942;28;20522;-68
2021/09/26 10:28:28;;;;;;;1.75;0.47;;;;;;;;;;5072579;28;20234;-68
2021/09/26 10:31:00;;;;;;;2.38;0.55;;;;;;;;;;5082685;28;20066;-68
2021/09/26 10:33:27;;;;;;;2.17;0.60;;;;;;;;;;5067980;28;20031;-68
2021/09/26 10:35:56;;;;;;;2.05;0.60;;;;;;;;;;5070434;28;20113;-69
2021/09/26 10:38:22;;;;;;;3.13;0.50;;;;;;;;;;5063874;28;20035;-69
2021/09/26 10:40:49;;;;;;;3.95;0.70;;;;;;;;;;5056906;28;20025;-68
2021/09/26 10:43:25;;;;;;;4.43;0.73;;;;;;;;;;5065926;28;20474;-68
2021/09/26 10:46:16;;;;;;;1.40;0.60;;;;;;;;;;5055220;28;20534;-69
2021/09/26 10:49:00;;;;;;;4.18;0.50;;;;;;;;;;5077791;28;20052;-68
2021/09/26 10:51:44;;;;;;;;;;;;;;;;;;5083325;28;20507;-68
2021/09/26 10:54:22;;;;;;;3.13;0.70;;;;;;;;;;5066684;28;19920;-68
2021/09/26 10:57:08;;;;;;;1.77;0.50;;;;;;;;;;5058288;28;20396;-69
2021/09/26 10:59:56;;;;;;;2.38;0.65;;;;;;;;;;5065730;28;20034;-68
2021/09/26 11:02:22;;;;;;;1.60;0.50;;;;;;;;;;5071829;28;20137;-68
2021/09/26 11:04:53;;;;;;;0.60;0.43;;;;;;;;;;5060360;28;20068;-69
2021/09/26 11:07:21;;;;;;;3.50;0.85;;;;;;;;;;5075061;28;20032;-69
2021/09/26 11:09:56;;;;;;;4.13;0.50;;;;;;;;;;5099223;28;20372;-69
2021/09/26 11:12:45;;;;;;;1.35;0.50;;;;;;;;;;5074986;28;20059;-69
2021/09/26 11:15:15;;;;;;;1.60;0.50;;;;;;;;;;5075319;28;20024;-68
2021/09/26 11:17:54;;;;;;;2.75;0.60;;;;;;;;;;5075996;28;20414;-69
2021/09/26 11:20:26;;;;;;;1.05;0.40;;;;;;;;;;5082441;28;20394;-68
2021/09/26 11:23:04;;;;;;;3.70;0.70;;;;;;;;;;5071195;28;20025;-69
2021/09/26 11:25:57;;;;;;;1.48;0.50;;;;;;;;;;5068509;28;20089;-68
2021/09/26 11:28:36;;;;;;;2.10;0.57;;;;;;;;;;5062777;28;20016;-68
2021/09/26 11:31:11;;;;;;;2.60;0.60;;;;;;;;;;5068184;28;20111;-69
2021/09/26 11:33:58;;;;;;;1.83;0.55;;;;;;;;;;5059978;28;20024;-68
2021/09/26 11:36:28;;;;;;;2.45;0.47;;;;;;;;;;5080448;28;20052;-69
2021/09/26 11:38:57;;;;;;;2.47;0.60;;;;;;;;;;5063806;28;20024;-69
2021/09/26 11:41:41;;;;;;;1.75;0.57;;;;;;;;;;5073141;28;20032;-69
2021/09/26 11:44:08;;;;;;;4.55;0.70;;;;;;;;;;5077579;28;20028;-69
2021/09/26 11:46:35;;;;;;;1.70;0.70;;;;;;;;;;5060993;28;20025;-69
2021/09/26 11:49:06;;;;;;;1.38;0.40;;;;;;;;;;5074144;28;20020;-68
2021/09/26 11:51:36;;;;;;;3.20;0.65;;;;;;;;;;5064503;28;20409;-69
2021/09/26 11:54:04;;;;;;;1.65;0.50;;;;;;;;;;5055157;28;20048;-69
2021/09/26 11:56:38;;;;;;;1.75;0.40;;;;;;;;;;5087570;28;20123;-68
2021/09/26 11:59:12;;;;;;;2.40;0.52;;;;;;;;;;5073955;28;20024;-68
2021/09/26 12:01:40;;;;;;;1.48;0.50;;;;;;;;;;5056998;28;20041;-69
2021/09/26 12:04:08;;;;;;;1.98;0.30;;;;;;;;;;5071755;28;20492;-69
2021/09/26 12:06:34;;;;;;;2.75;0.70;;;;;;;;;;5087322;28;20020;-69
2021/09/26 12:08:59;;;;;;;3.08;0.50;;;;;;;;;;5071367;28;20151;-69
2021/09/26 12:11:25;;;;;;;1.27;0.40;;;;;;;;;;5086426;28;21223;-69
2021/09/26 12:13:52;;;;;;;1.70;0.60;;;;;;;;;;5074987;28;20384;-68
2021/09/26 12:16:19;;;;;;;2.58;0.80;;;;;;;;;;5079389;28;20029;-69
2021/09/26 12:18:50;;;;;;;2.55;0.52;;;;;;;;;;5076750;28;20023;-69
2021/09/26 12:21:17;;;;;;;1.58;0.52;;;;;;;;;;5064142;28;20052;-69
2021/09/26 12:24:02;;;;;;;2.88;0.50;;;;;;;;;;5081194;28;20094;-69
2021/09/26 12:26:33;;;;;;;4.65;0.60;;;;;;;;;;5076727;28;20029;-69
2021/09/26 12:29:00;;;;;;;3.45;0.65;;;;;;;;;;5089020;28;20028;-69
2021/09/26 12:31:28;;;;;;;5.53;0.82;;;;;;;;;;5055099;28;20029;-68
2021/09/26 12:33:55;;;;;;;3.33;0.63;;;;;;;;;;5073658;28;20056;-69
2021/09/26 12:36:31;;;;;;;2.67;0.80;;;;;;;;;;5080174;28;20090;-69
2021/09/26 12:39:00;;;;;;;2.40;0.50;;;;;;;;;;5077845;28;20060;-69
2021/09/26 12:41:35;;;;;;;2.20;0.47;;;;;;;;;;5064995;28;20381;-69
2021/09/26 12:44:04;;;;;;;1.67;0.50;;;;;;;;;;5093128;28;20050;-69
2021/09/26 12:46:34;;;;;;;3.30;0.60;;;;;;;;;;5081677;28;20016;-69
2021/09/26 12:49:04;;;;;;;1.33;0.68;;;;;;;;;;5074051;28;20025;-69
2021/09/26 12:51:33;;;;;;;4.25;0.95;;;;;;;;;;5077977;28;20028;-69
2021/09/26 12:54:02;;;;;;;1.08;0.30;;;;;;;;;;5076838;28;20036;-69
2021/09/26 12:56:30;;;;;;;1.38;0.50;;;;;;;;;;5084801;28;20021;-69
2021/09/26 12:58:56;;;;;;;1.67;0.50;;;;;;;;;;5054457;28;20077;-69
2021/09/26 13:01:22;;;;;;;1.88;0.52;;;;;;;;;;5077295;28;20034;-69
2021/09/26 13:03:50;;;;;;;3.25;0.65;;;;;;;;;;5069391;28;20237;-69
2021/09/26 13:06:31;;;;;;;3.70;0.50;;;;;;;;;;5076001;28;20008;-69
2021/09/26 13:08:57;;;;;;;0.90;0.45;;;;;;;;;;5090597;28;20067;-69
2021/09/26 13:11:26;;;;;;;1.80;0.60;;;;;;;;;;5056861;28;20131;-69
2021/09/26 13:14:00;;;;;;;1.95;0.50;;;;;;;;;;5066161;28;20636;-68
2021/09/26 13:16:33;;;;;;;3.38;0.60;;;;;;;;;;5075281;28;20039;-69
2021/09/26 13:19:37;;;;;;;1.30;0.45;;;;;;;;;;5061394;28;20553;-69
2021/09/26 13:22:02;;;;;;;1.20;0.40;;;;;;;;;;5074361;28;21295;-69
2021/09/26 13:24:29;;;;;;;6.68;0.80;;;;;;;;;;5086671;28;20071;-68
2021/09/26 13:26:55;;;;;;;0.75;0.38;;;;;;;;;;5072862;28;20307;-68
2021/09/26 13:29:31;;;;;;;1.17;0.32;;;;;;;;;;5076791;28;20464;-69
2021/09/26 13:32:00;;;;;;;2.83;0.43;;;;;;;;;;5052676;28;20119;-69
2021/09/26 13:34:35;;;;;;;1.85;0.50;;;;;;;;;;5078464;28;20021;-68
2021/09/26 13:37:14;;;;;;;4.18;1.00;;;;;;;;;;5055727;28;20036;-69
2021/09/26 13:39:48;;;;;;;1.45;0.50;;;;;;;;;;5074388;28;20020;-68
2021/09/26 13:42:19;;;;;;;5.55;0.50;;;;;;;;;;5087796;28;20019;-69
2021/09/26 13:44:47;;;;;;;0.63;0.30;;;;;;;;;;5052178;28;20029;-68
2021/09/26 13:47:13;;;;;;;2.40;0.40;;;;;;;;;;5068752;28;20115;-69
2021/09/26 13:49:38;;;;;;;1.05;0.30;;;;;;;;;;5045076;28;20104;-69
2021/09/26 13:52:04;;;;;;;1.83;0.47;;;;;;;;;;5073160;28;20032;-69
2021/09/26 13:54:31;;;;;;;4.35;0.60;;;;;;;;;;5090819;28;20032;-69
2021/09/26 13:56:58;;;;;;;1.48;0.40;;;;;;;;;;5076674;28;20135;-69
2021/09/26 13:59:23;;;;;;;4.13;0.50;;;;;;;;;;5074407;28;20384;-68
2021/09/26 14:01:49;;;;;;;1.70;0.60;;;;;;;;;;5075303;28;20054;-68
2021/09/26 14:04:15;;;;;;;1.95;0.40;;;;;;;;;;5084726;28;20086;-69
2021/09/26 14:06:41;;;;;;;1.65;0.47;;;;;;;;;;5076333;28;20017;-68
2021/09/26 14:09:06;;;;;;;2.00;0.55;;;;;;;;;;5077594;28;20035;-69
2021/09/26 14:11:32;;;;;;;1.83;0.47;;;;;;;;;;5073717;28;20020;-69
2021/09/26 14:13:57;;;;;;;2.15;0.55;;;;;;;;;;5070443;28;20085;-69
2021/09/26 14:16:23;;;;;;;3.00;0.50;;;;;;;;;;5071404;28;20400;-69
2021/09/26 14:18:48;;;;;;;1.27;0.40;;;;;;;;;;5072534;28;20107;-69
2021/09/26 14:21:15;;;;;;;1.65;0.52;;;;;;;;;;5074472;28;20031;-69
2021/09/26 14:23:42;;;;;;;0.65;0.40;;;;;;;;;;5057382;28;20024;-69
2021/09/26 14:26:08;;;;;;;2.15;0.60;;;;;;;;;;5088379;28;20023;-69
2021/09/26 14:28:36;;;;;;;2.10;0.60;;;;;;;;;;5059220;28;20481;-69
2021/09/26 14:31:03;;;;;;;2.15;0.40;;;;;;;;;;5070079;28;20033;-69
2021/09/26 14:33:29;;;;;;;1.33;0.50;;;;;;;;;;5071332;28;20114;-68
2021/09/26 14:35:55;;;;;;;3.30;0.60;;;;;;;;;;5057239;28;20062;-69
2021/09/26 14:38:21;;;;;;;1.67;0.57;;;;;;;;;;5058427;28;20028;-69
2021/09/26 14:40:47;;;;;;;2.80;0.40;;;;;;;;;;5078738;28;20368;-69
2021/09/26 14:43:13;;;;;;;2.00;0.50;;;;;;;;;;5080429;28;20040;-69
2021/09/26 14:45:39;;;;;;;2.75;1.15;;;;;;;;;;5086418;28;20382;-69
2021/09/26 14:48:07;;;;;;;1.88;0.60;;;;;;;;;;5083415;28;20537;-69
2021/09/26 14:50:34;;;;;;;2.05;0.50;;;;;;;;;;5074824;28;20024;-69
2021/09/26 14:53:05;;;;;;;3.30;0.70;;;;;;;;;;5069769;28;20023;-69